Terminal Aerodrome Forecast
Issued by NWS

Home | Current Version | Previous Version | Text Only | Print | Product List | Glossary On
Versions: 1 2 3 4 5 6 7 8 9 10 11 12 13 14 15 16 17 18 19
000
FTUS43 KOAX 222300
TAFSNY
TAF
KSNY 222336Z 2300/2324 07008KT P6SM RA SCT030 OVC060
     FM230200 07012KT 2SM +RA BKN030
     FM230500 08008KT 4SM RA BKN020 OVC030
     FM230900 VRB04KT 1/2SM FG BKN010
     FM231400 27007KT P6SM SCT020=

USA.gov is the U.S. government's official web portal to all federal, state and local government web resources and services.